createdAt,value
2018-06-19T00:00:02.468Z,19.61
2018-06-19T00:00:33.697Z,19.58
2018-06-19T00:01:04.921Z,19.54
2018-06-19T00:01:36.104Z,19.54
2018-06-19T00:02:07.354Z,19.54
2018-06-19T00:02:38.718Z,19.53
2018-06-19T00:03:09.903Z,19.51
2018-06-19T00:03:41.083Z,19.50
2018-06-19T00:04:12.260Z,19.51
2018-06-19T00:04:43.483Z,19.51
2018-06-19T00:05:14.674Z,19.49
2018-06-19T00:05:45.994Z,19.49
2018-06-19T00:06:17.181Z,19.50
2018-06-19T00:06:48.357Z,19.50
2018-06-19T00:07:19.527Z,19.47
2018-06-19T00:07:50.719Z,19.48
2018-06-19T00:08:21.953Z,19.46
2018-06-19T00:08:53.121Z,19.44
2018-06-19T00:09:24.346Z,19.45
2018-06-19T00:09:55.552Z,19.46
2018-06-19T00:10:26.754Z,19.46
2018-06-19T00:10:57.965Z,19.51
2018-06-19T00:11:29.197Z,19.54
2018-06-19T00:12:00.386Z,19.57
2018-06-19T00:12:31.636Z,19.59
2018-06-19T00:13:02.817Z,19.61
2018-06-19T00:13:34.040Z,19.63
2018-06-19T00:14:05.226Z,19.63
2018-06-19T00:14:36.412Z,19.64
2018-06-19T00:15:07.596Z,19.65
2018-06-19T00:15:38.817Z,19.62
2018-06-19T00:16:10.105Z,19.62
2018-06-19T00:16:41.290Z,19.59
2018-06-19T00:17:12.548Z,19.57
2018-06-19T00:17:43.737Z,19.55
2018-06-19T00:18:14.936Z,19.55
2018-06-19T00:18:46.101Z,19.53
2018-06-19T00:19:17.278Z,19.53
2018-06-19T00:19:48.525Z,19.56
2018-06-19T00:20:19.741Z,19.58
2018-06-19T00:20:50.920Z,19.45
2018-06-19T00:21:22.191Z,19.64
2018-06-19T00:21:53.376Z,19.67
2018-06-19T00:22:24.649Z,19.67
2018-06-19T00:22:55.844Z,19.68
2018-06-19T00:23:27.008Z,19.67
2018-06-19T00:23:58.179Z,19.63
2018-06-19T00:24:29.413Z,19.62
2018-06-19T00:25:00.709Z,19.60
2018-06-19T00:25:31.892Z,19.60
2018-06-19T00:26:03.063Z,19.56
2018-06-19T00:26:34.306Z,19.54
2018-06-19T00:27:05.532Z,19.52
2018-06-19T00:27:36.705Z,19.51
2018-06-19T00:28:07.922Z,19.52
2018-06-19T00:28:39.113Z,19.52
2018-06-19T00:29:10.373Z,19.51
2018-06-19T00:29:41.596Z,19.54
2018-06-19T00:30:12.765Z,19.58
2018-06-19T00:30:44.033Z,19.58
2018-06-19T00:31:15.269Z,19.59
2018-06-19T00:31:46.468Z,19.58
2018-06-19T00:32:17.645Z,19.58
2018-06-19T00:32:48.894Z,19.59
2018-06-19T00:33:20.097Z,19.61
2018-06-19T00:33:51.273Z,19.64
2018-06-19T00:34:22.444Z,19.65
2018-06-19T00:34:53.622Z,19.66
2018-06-19T00:35:24.857Z,19.67
2018-06-19T00:35:56.081Z,19.68
2018-06-19T00:36:27.260Z,19.72
2018-06-19T00:36:58.432Z,19.74
2018-06-19T00:37:29.609Z,19.78
2018-06-19T00:38:00.799Z,19.81
2018-06-19T00:38:32.071Z,19.82
2018-06-19T00:39:03.304Z,19.85
2018-06-19T00:39:34.541Z,19.87
2018-06-19T00:40:05.724Z,19.88
2018-06-19T00:40:37.914Z,16.39
2018-06-19T00:41:09.120Z,19.87
2018-06-19T00:41:41.366Z,19.86
2018-06-19T00:42:12.597Z,19.86
2018-06-19T00:42:43.778Z,19.86
2018-06-19T00:43:14.958Z,19.84
2018-06-19T00:43:46.193Z,19.84
2018-06-19T00:44:17.428Z,19.84
2018-06-19T00:44:48.618Z,19.85
2018-06-19T00:45:19.827Z,19.86
2018-06-19T00:45:51.046Z,19.88
2018-06-19T00:46:22.224Z,19.91
2018-06-19T00:46:53.398Z,19.92
2018-06-19T00:47:24.569Z,19.93
2018-06-19T00:47:55.821Z,19.92
2018-06-19T00:48:27.076Z,19.92
2018-06-19T00:48:59.514Z,19.90
2018-06-19T00:49:30.760Z,19.85
2018-06-19T00:50:01.949Z,19.81
2018-06-19T00:50:33.132Z,19.82
2018-06-19T00:51:04.305Z,19.83
2018-06-19T00:51:35.546Z,19.86
2018-06-19T00:52:06.730Z,19.87
2018-06-19T00:52:37.916Z,19.86
2018-06-19T00:53:09.132Z,19.89
2018-06-19T00:53:40.315Z,19.90
2018-06-19T00:54:11.507Z,19.93
2018-06-19T00:54:42.677Z,19.94
2018-06-19T00:55:13.862Z,19.95
2018-06-19T00:55:45.045Z,19.97
2018-06-19T00:56:16.225Z,19.97
2018-06-19T00:56:47.428Z,19.96
2018-06-19T00:57:18.606Z,19.96
2018-06-19T00:57:49.801Z,19.93
2018-06-19T00:58:20.976Z,19.90
2018-06-19T00:58:52.205Z,19.91
2018-06-19T00:59:23.383Z,19.92
2018-06-19T00:59:54.560Z,19.95
2018-06-19T01:00:25.737Z,19.95
2018-06-19T01:00:56.915Z,19.98
2018-06-19T01:01:28.193Z,19.98
2018-06-19T01:01:59.418Z,19.96
2018-06-19T01:02:30.642Z,19.95
2018-06-19T01:03:01.828Z,19.95
2018-06-19T01:03:33.012Z,19.94
2018-06-19T01:04:04.185Z,19.93
2018-06-19T01:04:35.361Z,19.92
2018-06-19T01:05:06.543Z,19.91
2018-06-19T01:05:37.720Z,19.87
2018-06-19T01:06:08.888Z,19.86
2018-06-19T01:06:40.108Z,19.89
2018-06-19T01:07:11.277Z,19.90
2018-06-19T01:07:42.448Z,19.90
2018-06-19T01:08:13.669Z,19.94
2018-06-19T01:08:44.932Z,19.98
2018-06-19T01:09:16.126Z,20.02
2018-06-19T01:09:47.301Z,20.03
2018-06-19T01:10:18.521Z,20.01
2018-06-19T01:10:49.700Z,20.02
2018-06-19T01:11:20.953Z,20.04
2018-06-19T01:11:52.233Z,20.07
2018-06-19T01:12:23.524Z,20.12
2018-06-19T01:12:54.753Z,20.12
2018-06-19T01:13:26.231Z,20.14
2018-06-19T01:13:57.461Z,20.16
2018-06-19T01:14:28.645Z,20.19
2018-06-19T01:14:59.879Z,20.22
2018-06-19T01:15:31.060Z,20.24
2018-06-19T01:16:02.238Z,20.32
2018-06-19T01:16:33.408Z,20.31
2018-06-19T01:17:04.660Z,20.35
2018-06-19T01:17:35.845Z,20.35
2018-06-19T01:18:07.068Z,20.40
2018-06-19T01:18:38.256Z,20.41
2018-06-19T01:19:09.500Z,20.38
2018-06-19T01:19:40.720Z,20.39
2018-06-19T01:20:11.902Z,20.38
2018-06-19T01:20:43.126Z,20.38
2018-06-19T01:21:14.316Z,20.37
2018-06-19T01:21:45.501Z,20.32
2018-06-19T01:22:16.688Z,20.33
2018-06-19T01:22:47.925Z,20.31
2018-06-19T01:23:19.161Z,20.25
2018-06-19T01:23:50.396Z,20.24
2018-06-19T01:24:21.616Z,20.17
2018-06-19T01:24:52.845Z,20.13
2018-06-19T01:25:24.028Z,20.12
2018-06-19T01:25:55.203Z,20.08
2018-06-19T01:26:26.380Z,20.09
2018-06-19T01:26:57.552Z,20.10
2018-06-19T01:27:28.821Z,20.11
2018-06-19T01:28:00.061Z,20.14
2018-06-19T01:28:31.250Z,20.16
2018-06-19T01:29:02.490Z,20.17
2018-06-19T01:29:33.769Z,20.14
2018-06-19T01:30:05.009Z,20.17
2018-06-19T01:30:36.194Z,20.19
2018-06-19T01:31:07.383Z,20.17
2018-06-19T01:31:38.552Z,20.18
2018-06-19T01:32:09.727Z,20.21
2018-06-19T01:32:40.900Z,20.20
2018-06-19T01:33:12.110Z,20.20
2018-06-19T01:33:43.332Z,20.21
2018-06-19T01:34:14.606Z,20.21
2018-06-19T01:34:45.887Z,20.23
2018-06-19T01:35:17.070Z,20.28
2018-06-19T01:35:48.294Z,20.24
2018-06-19T01:36:19.485Z,20.25
2018-06-19T01:36:50.662Z,20.26
2018-06-19T01:37:21.846Z,20.27
2018-06-19T01:37:53.040Z,20.27
2018-06-19T01:38:24.251Z,20.26
2018-06-19T01:38:55.485Z,20.24
2018-06-19T01:39:26.758Z,20.22
2018-06-19T01:39:57.940Z,20.15
2018-06-19T01:40:29.108Z,20.13
2018-06-19T01:41:01.297Z,20.09
2018-06-19T01:41:32.474Z,20.05
2018-06-19T01:42:03.657Z,20.00
2018-06-19T01:42:34.897Z,19.96
2018-06-19T01:43:06.089Z,19.91
2018-06-19T01:43:37.271Z,19.92
2018-06-19T01:44:08.526Z,19.91
2018-06-19T01:44:39.696Z,19.87
2018-06-19T01:45:10.866Z,19.86
2018-06-19T01:45:42.036Z,19.84
2018-06-19T01:46:13.213Z,19.84
2018-06-19T01:46:44.461Z,19.82
2018-06-19T01:47:15.649Z,19.83
2018-06-19T01:47:46.818Z,19.85
2018-06-19T01:48:18.052Z,19.87
2018-06-19T01:48:49.299Z,19.87
2018-06-19T01:49:20.532Z,19.90
2018-06-19T01:49:51.708Z,19.92
2018-06-19T01:50:22.939Z,19.92
2018-06-19T01:50:54.174Z,19.91
2018-06-19T01:51:25.356Z,19.94
2018-06-19T01:51:56.532Z,19.95
2018-06-19T01:52:27.756Z,19.96
2018-06-19T01:52:59.021Z,19.98
2018-06-19T01:53:30.206Z,19.97
2018-06-19T01:54:01.433Z,19.97
2018-06-19T01:54:32.620Z,19.97
2018-06-19T01:55:03.802Z,19.96
2018-06-19T01:55:34.981Z,19.90
2018-06-19T01:56:06.162Z,19.89
2018-06-19T01:56:38.072Z,19.83
2018-06-19T01:57:09.253Z,19.85
2018-06-19T01:57:40.508Z,19.86
2018-06-19T01:58:11.749Z,19.89
2018-06-19T01:58:42.921Z,19.89
2018-06-19T01:59:14.096Z,19.87
2018-06-19T01:59:45.268Z,19.85
2018-06-19T02:00:16.460Z,19.86
2018-06-19T02:00:47.633Z,19.83
2018-06-19T02:01:18.820Z,19.82
2018-06-19T02:01:50.066Z,19.82
2018-06-19T02:02:21.244Z,19.82
2018-06-19T02:02:52.470Z,19.80
2018-06-19T02:03:23.746Z,19.79
2018-06-19T02:03:54.925Z,19.78
2018-06-19T02:04:26.152Z,19.78
2018-06-19T02:04:57.446Z,19.80
2018-06-19T02:05:28.688Z,19.78
2018-06-19T02:05:59.912Z,19.79
2018-06-19T02:06:31.096Z,19.79
2018-06-19T02:07:02.328Z,19.78
2018-06-19T02:07:33.601Z,19.78
2018-06-19T02:08:04.785Z,19.78
2018-06-19T02:08:36.018Z,19.81
2018-06-19T02:09:07.253Z,19.82
2018-06-19T02:09:38.498Z,19.82
2018-06-19T02:10:09.773Z,19.84
2018-06-19T02:10:41.008Z,19.87
2018-06-19T02:11:12.279Z,19.83
2018-06-19T02:11:43.466Z,19.81
2018-06-19T02:12:14.636Z,19.77
2018-06-19T02:12:45.857Z,19.74
2018-06-19T02:13:17.035Z,19.72
2018-06-19T02:13:48.200Z,19.71
2018-06-19T02:14:19.369Z,19.70
2018-06-19T02:14:50.550Z,19.69
2018-06-19T02:15:21.733Z,19.66
2018-06-19T02:15:53.322Z,19.64
2018-06-19T02:16:24.549Z,19.65
2018-06-19T02:16:55.776Z,19.66
2018-06-19T02:17:27.014Z,19.64
2018-06-19T02:17:58.188Z,19.59
2018-06-19T02:18:29.373Z,19.58
2018-06-19T02:19:00.646Z,19.57
2018-06-19T02:19:31.836Z,19.59
2018-06-19T02:20:03.062Z,19.60
2018-06-19T02:20:34.294Z,19.58
2018-06-19T02:21:05.495Z,19.57
2018-06-19T02:21:36.664Z,19.57
2018-06-19T02:22:07.839Z,19.59
2018-06-19T02:22:39.015Z,19.59
2018-06-19T02:23:10.203Z,19.59
2018-06-19T02:23:41.378Z,19.63
2018-06-19T02:24:12.597Z,19.64
2018-06-19T02:24:43.817Z,19.64
2018-06-19T02:25:14.992Z,19.64
2018-06-19T02:25:46.178Z,19.66
2018-06-19T02:26:17.357Z,19.64
2018-06-19T02:26:48.536Z,19.66
2018-06-19T02:27:19.716Z,19.67
2018-06-19T02:27:50.981Z,19.68
2018-06-19T02:28:22.217Z,19.70
2018-06-19T02:28:53.432Z,19.69
2018-06-19T02:29:24.612Z,19.70
2018-06-19T02:29:55.841Z,19.69
2018-06-19T02:30:27.024Z,19.66
2018-06-19T02:30:58.208Z,19.63
2018-06-19T02:31:29.413Z,19.61
2018-06-19T02:32:00.598Z,19.61
2018-06-19T02:32:31.830Z,19.58
2018-06-19T02:33:03.031Z,19.57
2018-06-19T02:33:34.217Z,19.53
2018-06-19T02:34:05.397Z,19.50
2018-06-19T02:34:36.634Z,19.50
2018-06-19T02:35:07.827Z,19.49
2018-06-19T02:35:39.006Z,19.48
2018-06-19T02:36:10.215Z,19.50
2018-06-19T02:36:41.394Z,19.49
2018-06-19T02:37:12.577Z,19.49
2018-06-19T02:37:43.757Z,19.47
2018-06-19T02:38:14.932Z,19.47
2018-06-19T02:38:46.162Z,19.47
2018-06-19T02:39:17.355Z,19.46
2018-06-19T02:39:48.580Z,19.45
2018-06-19T02:40:19.759Z,19.45
2018-06-19T02:40:50.973Z,19.48
2018-06-19T02:41:22.207Z,19.52
2018-06-19T02:41:53.455Z,19.53
2018-06-19T02:42:24.676Z,19.51
2018-06-19T02:42:55.868Z,19.51
2018-06-19T02:43:27.089Z,19.52
2018-06-19T02:43:58.266Z,19.55
2018-06-19T02:44:29.488Z,19.57
2018-06-19T02:45:00.725Z,19.57
2018-06-19T02:45:31.907Z,19.56
2018-06-19T02:46:03.097Z,19.55
2018-06-19T02:46:34.308Z,19.52
2018-06-19T02:47:05.545Z,19.50
2018-06-19T02:47:36.720Z,19.50
2018-06-19T02:48:07.896Z,19.50
2018-06-19T02:48:39.080Z,19.50
2018-06-19T02:49:10.259Z,19.50
2018-06-19T02:49:41.486Z,19.50
2018-06-19T02:50:12.714Z,19.50
2018-06-19T02:50:43.901Z,19.52
2018-06-19T02:51:15.075Z,19.51
2018-06-19T02:51:46.277Z,19.49
2018-06-19T02:52:17.532Z,19.48
2018-06-19T02:52:48.830Z,19.48
2018-06-19T02:53:20.012Z,19.47
2018-06-19T02:53:51.245Z,19.43
2018-06-19T02:54:22.481Z,19.42
2018-06-19T02:54:53.668Z,19.42
2018-06-19T02:55:24.848Z,19.46
2018-06-19T02:55:56.081Z,19.52
2018-06-19T02:56:27.264Z,19.57
2018-06-19T02:56:58.444Z,19.61
2018-06-19T02:57:29.677Z,19.67
2018-06-19T02:58:00.894Z,19.75
2018-06-19T02:58:32.082Z,19.81
2018-06-19T02:59:03.260Z,19.84
2018-06-19T02:59:34.505Z,19.82
2018-06-19T03:00:05.743Z,19.83
2018-06-19T03:00:36.976Z,19.86
2018-06-19T03:01:08.166Z,19.90
2018-06-19T03:01:39.407Z,19.92
2018-06-19T03:02:10.585Z,19.98
2018-06-19T03:02:41.809Z,20.04
2018-06-19T03:03:13.032Z,20.10
2018-06-19T03:03:44.210Z,20.17
2018-06-19T03:04:15.380Z,20.20
2018-06-19T03:04:46.613Z,20.25
2018-06-19T03:05:17.800Z,20.29
2018-06-19T03:05:49.026Z,20.34
2018-06-19T03:06:20.217Z,20.42
2018-06-19T03:06:51.412Z,20.47
2018-06-19T03:07:22.693Z,20.53
2018-06-19T03:07:53.952Z,20.58
2018-06-19T03:08:25.139Z,20.63
2018-06-19T03:08:56.413Z,20.69
2018-06-19T03:09:27.661Z,20.68
2018-06-19T03:09:58.852Z,20.79
2018-06-19T03:10:30.080Z,20.79
2018-06-19T03:11:01.260Z,20.86
2018-06-19T03:11:32.437Z,20.94
2018-06-19T03:12:03.665Z,20.93
2018-06-19T03:12:34.854Z,20.98
2018-06-19T03:13:06.037Z,21.09
2018-06-19T03:13:37.248Z,21.17
2018-06-19T03:14:08.431Z,21.22
2018-06-19T03:14:39.609Z,21.29
2018-06-19T03:15:10.788Z,21.38
2018-06-19T03:15:42.004Z,21.42
2018-06-19T03:16:13.297Z,21.55
2018-06-19T03:16:44.543Z,21.64
2018-06-19T03:17:15.724Z,21.75
2018-06-19T03:17:46.900Z,21.84
2018-06-19T03:18:18.071Z,21.89
2018-06-19T03:18:49.292Z,21.93
2018-06-19T03:19:20.488Z,22.04
2018-06-19T03:19:51.701Z,22.13
2018-06-19T03:20:22.864Z,22.18
2018-06-19T03:20:54.037Z,22.25
2018-06-19T03:21:25.263Z,22.39
2018-06-19T03:21:56.503Z,22.48
2018-06-19T03:22:27.685Z,22.56
2018-06-19T03:22:58.865Z,22.60
2018-06-19T03:23:30.038Z,22.63
2018-06-19T03:24:01.212Z,22.68
2018-06-19T03:24:32.381Z,22.75
2018-06-19T03:25:03.605Z,22.71
2018-06-19T03:25:34.779Z,22.76
2018-06-19T03:26:05.956Z,22.76
2018-06-19T03:26:37.127Z,22.77
2018-06-19T03:27:08.353Z,22.81
2018-06-19T03:27:39.532Z,22.79
2018-06-19T03:28:10.740Z,22.79
2018-06-19T03:28:41.924Z,22.81
2018-06-19T03:29:13.157Z,22.61
2018-06-19T03:29:44.379Z,22.76
2018-06-19T03:30:15.710Z,22.89
2018-06-19T03:30:46.925Z,22.88
2018-06-19T03:31:18.164Z,22.98
2018-06-19T03:31:49.397Z,23.10
2018-06-19T03:32:20.636Z,23.21
2018-06-19T03:32:51.867Z,23.34
2018-06-19T03:33:23.042Z,23.41
2018-06-19T03:33:54.266Z,23.48
2018-06-19T03:34:25.503Z,23.49
2018-06-19T03:34:56.732Z,23.44
2018-06-19T03:35:27.912Z,23.37
2018-06-19T03:35:59.072Z,23.48
2018-06-19T03:36:30.304Z,23.34
2018-06-19T03:37:01.472Z,23.33
2018-06-19T03:37:32.645Z,23.48
2018-06-19T03:38:03.829Z,23.48
2018-06-19T03:38:34.992Z,23.49
2018-06-19T03:39:06.200Z,23.57
2018-06-19T03:39:37.373Z,23.54
2018-06-19T03:40:08.540Z,23.69
2018-06-19T03:40:39.712Z,23.83
2018-06-19T03:41:10.880Z,23.88
2018-06-19T03:41:42.053Z,23.93
2018-06-19T03:42:13.279Z,24.06
2018-06-19T03:42:44.497Z,24.22
2018-06-19T03:43:15.754Z,24.21
2018-06-19T03:43:46.934Z,24.23
2018-06-19T03:44:18.101Z,24.37
2018-06-19T03:44:49.354Z,24.26
2018-06-19T03:45:20.537Z,24.47
2018-06-19T03:45:51.705Z,24.38
2018-06-19T03:46:22.880Z,24.45
2018-06-19T03:46:54.060Z,24.57
2018-06-19T03:47:25.284Z,24.47
2018-06-19T03:47:56.508Z,24.54
2018-06-19T03:48:27.676Z,24.41
2018-06-19T03:48:58.857Z,24.52
2018-06-19T03:49:30.046Z,24.62
2018-06-19T03:50:01.209Z,24.70
2018-06-19T03:50:32.445Z,24.85
2018-06-19T03:51:03.668Z,24.88
2018-06-19T03:51:34.865Z,24.90
2018-06-19T03:52:06.052Z,24.86
2018-06-19T03:52:37.268Z,24.75
2018-06-19T03:53:08.429Z,24.61
2018-06-19T03:53:39.601Z,24.48
2018-06-19T03:54:10.770Z,24.21
2018-06-19T03:54:41.944Z,24.08
2018-06-19T03:55:13.184Z,24.00
2018-06-19T03:55:44.365Z,23.90
2018-06-19T03:56:15.548Z,23.82
2018-06-19T03:56:46.725Z,23.77
2018-06-19T03:57:17.889Z,23.75
2018-06-19T03:57:49.097Z,23.70
2018-06-19T03:58:20.343Z,23.81
2018-06-19T03:58:51.528Z,24.03
2018-06-19T03:59:22.697Z,24.21
2018-06-19T03:59:53.873Z,24.39
2018-06-19T04:00:25.101Z,24.71
2018-06-19T04:00:56.308Z,24.92
2018-06-19T04:01:27.490Z,25.07
2018-06-19T04:01:58.714Z,25.25
2018-06-19T04:02:29.897Z,25.13
2018-06-19T04:03:01.120Z,25.30
2018-06-19T04:03:32.344Z,25.28
2018-06-19T04:04:03.517Z,25.37
2018-06-19T04:04:34.692Z,25.28
2018-06-19T04:05:05.865Z,25.12
2018-06-19T04:05:37.042Z,24.88
2018-06-19T04:06:08.219Z,24.62
2018-06-19T04:06:39.389Z,24.28
2018-06-19T04:07:10.562Z,24.06
2018-06-19T04:07:41.788Z,24.07
2018-06-19T04:08:12.997Z,24.04
2018-06-19T04:08:44.270Z,24.05
2018-06-19T04:09:15.449Z,24.31
2018-06-19T04:09:46.616Z,24.56
2018-06-19T04:10:17.837Z,24.86
2018-06-19T04:10:49.013Z,25.08
2018-06-19T04:11:20.290Z,25.29
2018-06-19T04:11:51.486Z,25.53
2018-06-19T04:12:22.685Z,25.65
2018-06-19T04:12:53.913Z,25.76
2018-06-19T04:13:25.092Z,25.78
2018-06-19T04:13:56.360Z,25.68
2018-06-19T04:14:27.559Z,25.25
2018-06-19T04:14:58.731Z,25.19
2018-06-19T04:15:29.944Z,24.95
2018-06-19T04:16:01.218Z,24.77
2018-06-19T04:16:32.450Z,24.65
2018-06-19T04:17:03.667Z,24.59
2018-06-19T04:17:34.834Z,24.53
2018-06-19T04:18:06.012Z,24.51
2018-06-19T04:18:37.278Z,24.62
2018-06-19T04:19:08.477Z,24.74
2018-06-19T04:19:39.651Z,24.89
2018-06-19T04:20:10.821Z,24.86
2018-06-19T04:20:42.036Z,24.78
2018-06-19T04:21:13.209Z,24.64
2018-06-19T04:21:44.404Z,24.51
2018-06-19T04:22:15.590Z,24.43
2018-06-19T04:22:46.760Z,24.35
2018-06-19T04:23:17.990Z,24.35
2018-06-19T04:23:49.261Z,24.41
2018-06-19T04:24:20.528Z,24.52
2018-06-19T04:24:51.709Z,24.58
2018-06-19T04:25:22.877Z,24.62
2018-06-19T04:25:54.152Z,24.77
2018-06-19T04:26:25.377Z,24.90
2018-06-19T04:26:56.560Z,25.03
2018-06-19T04:27:27.772Z,25.32
2018-06-19T04:27:58.952Z,25.35
2018-06-19T04:28:30.209Z,25.38
2018-06-19T04:29:01.433Z,25.42
2018-06-19T04:29:32.653Z,25.44
2018-06-19T04:30:03.832Z,25.27
2018-06-19T04:30:35.021Z,25.05
2018-06-19T04:31:06.193Z,24.97
2018-06-19T04:31:37.488Z,24.71
2018-06-19T04:32:08.714Z,24.54
2018-06-19T04:32:39.905Z,24.44
2018-06-19T04:33:11.072Z,24.46
2018-06-19T04:33:42.325Z,24.64
2018-06-19T04:34:13.559Z,24.93
2018-06-19T04:34:44.745Z,25.25
2018-06-19T04:35:15.918Z,25.62
2018-06-19T04:35:47.101Z,25.83
2018-06-19T04:36:18.279Z,26.16
2018-06-19T04:36:49.540Z,26.24
2018-06-19T04:37:20.752Z,26.34
2018-06-19T04:37:51.927Z,26.23
2018-06-19T04:38:23.160Z,26.10
2018-06-19T04:38:54.344Z,26.14
2018-06-19T04:39:25.513Z,25.89
2018-06-19T04:39:56.740Z,25.71
2018-06-19T04:40:27.940Z,25.56
2018-06-19T04:40:59.129Z,25.43
2018-06-19T04:41:30.353Z,25.28
2018-06-19T04:42:01.587Z,25.23
2018-06-19T04:42:32.729Z,25.27
2018-06-19T04:43:03.896Z,25.37
2018-06-19T04:43:35.081Z,25.64
2018-06-19T04:44:06.267Z,25.87
2018-06-19T04:44:37.441Z,26.21
2018-06-19T04:45:08.625Z,26.56
2018-06-19T04:45:39.857Z,26.80
2018-06-19T04:46:11.078Z,27.13
2018-06-19T04:46:42.257Z,27.44
2018-06-19T04:47:13.440Z,27.61
2018-06-19T04:47:44.636Z,27.73
2018-06-19T04:48:15.812Z,27.86
2018-06-19T04:48:46.994Z,27.88
2018-06-19T04:49:18.165Z,27.82
2018-06-19T04:49:49.431Z,27.70
2018-06-19T04:50:20.592Z,27.52
2018-06-19T04:50:51.773Z,27.24
2018-06-19T04:51:22.994Z,26.74
2018-06-19T04:51:54.175Z,26.45
2018-06-19T04:52:25.345Z,26.05
2018-06-19T04:52:56.541Z,25.88
2018-06-19T04:53:27.718Z,25.72
2018-06-19T04:53:58.945Z,25.66
2018-06-19T04:54:30.186Z,25.61
2018-06-19T04:55:01.413Z,25.56
2018-06-19T04:55:32.577Z,25.57
2018-06-19T04:56:03.761Z,25.60
2018-06-19T04:56:34.948Z,25.68
2018-06-19T04:57:06.148Z,25.86
2018-06-19T04:57:37.335Z,26.04
2018-06-19T04:58:08.513Z,26.19
2018-06-19T04:58:39.696Z,26.53
2018-06-19T04:59:10.933Z,26.83
2018-06-19T04:59:42.156Z,27.03
2018-06-19T05:00:13.398Z,27.04
2018-06-19T05:00:44.648Z,27.19
2018-06-19T05:01:15.840Z,27.06
2018-06-19T05:01:47.056Z,26.82
2018-06-19T05:02:18.240Z,26.56
2018-06-19T05:02:49.474Z,26.44
2018-06-19T05:03:20.660Z,26.34
2018-06-19T05:03:51.906Z,26.22
2018-06-19T05:04:23.100Z,26.24
2018-06-19T05:04:54.361Z,26.27
2018-06-19T05:05:25.554Z,26.38
2018-06-19T05:05:56.743Z,26.65
2018-06-19T05:06:27.921Z,26.86
2018-06-19T05:06:59.099Z,27.25
2018-06-19T05:07:30.284Z,27.59
2018-06-19T05:08:01.525Z,27.83
2018-06-19T05:08:32.725Z,28.12
2018-06-19T05:09:04.006Z,28.40
2018-06-19T05:09:35.277Z,28.49
2018-06-19T05:10:06.465Z,28.53
2018-06-19T05:10:37.667Z,28.85
2018-06-19T05:11:08.913Z,28.93
2018-06-19T05:11:40.093Z,29.08
2018-06-19T05:12:11.269Z,29.31
2018-06-19T05:12:42.511Z,29.50
2018-06-19T05:13:13.725Z,29.58
2018-06-19T05:13:45.002Z,29.75
2018-06-19T05:14:16.230Z,29.74
2018-06-19T05:14:47.480Z,29.57
2018-06-19T05:15:18.661Z,29.38
2018-06-19T05:15:49.921Z,29.17
2018-06-19T05:16:21.168Z,28.81
2018-06-19T05:16:52.420Z,28.68
2018-06-19T05:17:23.611Z,28.62
2018-06-19T05:17:54.784Z,28.64
2018-06-19T05:18:25.962Z,28.61
2018-06-19T05:18:57.139Z,28.73
2018-06-19T05:19:28.428Z,28.84
2018-06-19T05:19:59.633Z,29.03
2018-06-19T05:20:30.849Z,29.23
2018-06-19T05:21:02.025Z,29.37
2018-06-19T05:21:33.200Z,29.59
2018-06-19T05:22:04.382Z,29.71
2018-06-19T05:22:35.566Z,29.83
2018-06-19T05:23:06.801Z,30.07
2018-06-19T05:23:38.036Z,30.32
2018-06-19T05:24:09.226Z,30.33
2018-06-19T05:24:40.400Z,30.23
2018-06-19T05:25:11.572Z,30.08
2018-06-19T05:25:42.732Z,30.10
2018-06-19T05:26:13.911Z,30.17
2018-06-19T05:26:45.084Z,30.29
2018-06-19T05:27:16.253Z,30.45
2018-06-19T05:27:47.430Z,30.58
2018-06-19T05:28:18.596Z,30.72
2018-06-19T05:28:49.762Z,30.92
2018-06-19T05:29:20.982Z,30.94
2018-06-19T05:29:52.164Z,30.88
2018-06-19T05:30:23.379Z,30.79
2018-06-19T05:30:54.590Z,30.60
2018-06-19T05:31:28.609Z,30.46
2018-06-19T05:31:59.792Z,30.50
2018-06-19T05:32:31.057Z,30.60
2018-06-19T05:33:02.234Z,30.71
2018-06-19T05:33:33.409Z,30.84
2018-06-19T05:34:04.635Z,30.93
2018-06-19T05:34:35.820Z,31.12
2018-06-19T05:35:07.040Z,31.23
2018-06-19T05:35:38.245Z,31.33
2018-06-19T05:36:09.408Z,31.29
2018-06-19T05:36:40.637Z,31.27
2018-06-19T05:37:11.817Z,31.11
2018-06-19T05:37:42.998Z,31.02
2018-06-19T05:38:14.169Z,31.04
2018-06-19T05:38:45.337Z,31.07
2018-06-19T05:39:16.512Z,31.20
2018-06-19T05:39:47.687Z,31.28
2018-06-19T05:40:18.864Z,31.17
2018-06-19T05:40:51.010Z,31.09
2018-06-19T05:41:22.866Z,31.08
2018-06-19T05:41:54.038Z,31.00
2018-06-19T05:42:25.218Z,30.95
2018-06-19T05:42:56.424Z,30.79
2018-06-19T05:43:27.624Z,30.55
2018-06-19T05:43:58.813Z,30.64
2018-06-19T05:44:30.050Z,30.73
2018-06-19T05:45:01.241Z,30.73
2018-06-19T05:45:32.468Z,30.75
2018-06-19T05:46:03.648Z,30.87
2018-06-19T05:46:34.861Z,30.99
2018-06-19T05:47:06.094Z,31.01
2018-06-19T05:47:37.285Z,31.02
2018-06-19T05:48:08.573Z,31.10
2018-06-19T05:48:39.805Z,31.16
2018-06-19T05:49:12.122Z,31.12
2018-06-19T05:49:43.345Z,31.08
2018-06-19T05:50:15.705Z,31.07
2018-06-19T05:50:46.967Z,30.88
2018-06-19T05:51:18.159Z,30.68
2018-06-19T05:51:49.384Z,30.56
2018-06-19T05:52:23.582Z,30.54
2018-06-19T05:52:54.880Z,30.52
2018-06-19T05:53:26.069Z,30.53
2018-06-19T05:53:57.256Z,30.48
2018-06-19T05:54:28.521Z,30.35
2018-06-19T05:54:59.721Z,30.19
2018-06-19T05:55:30.949Z,30.18
2018-06-19T05:56:02.150Z,30.12
2018-06-19T05:56:33.324Z,30.06
2018-06-19T05:57:04.549Z,30.06
2018-06-19T05:57:35.734Z,29.96
2018-06-19T05:58:06.999Z,29.81
2018-06-19T05:58:38.181Z,29.80
2018-06-19T05:59:09.357Z,29.76
2018-06-19T05:59:40.654Z,29.72
2018-06-19T06:00:11.874Z,29.63
2018-06-19T06:00:43.057Z,29.61
2018-06-19T06:01:14.297Z,29.58
2018-06-19T06:02:22.924Z,29.61
2018-06-19T06:02:54.236Z,29.70
2018-06-19T06:03:25.461Z,29.71
2018-06-19T06:03:56.649Z,29.74
2018-06-19T06:04:27.821Z,29.72
2018-06-19T06:04:58.996Z,29.76
2018-06-19T06:05:30.251Z,29.70
2018-06-19T06:06:01.519Z,29.67
2018-06-19T06:06:32.705Z,29.45
2018-06-19T06:07:03.986Z,29.14
2018-06-19T06:07:35.234Z,28.93
2018-06-19T06:08:06.529Z,28.90
2018-06-19T06:08:37.749Z,28.90
2018-06-19T06:09:08.984Z,29.04
2018-06-19T06:09:41.041Z,29.11
2018-06-19T06:10:12.229Z,29.02
2018-06-19T06:10:43.401Z,28.84
2018-06-19T06:11:15.272Z,28.61
2018-06-19T06:11:46.478Z,28.47
2018-06-19T06:12:17.708Z,28.50
2018-06-19T06:12:48.966Z,28.38
2018-06-19T06:13:20.202Z,28.30
2018-06-19T06:13:51.383Z,28.20
2018-06-19T06:14:22.546Z,28.23
2018-06-19T06:14:53.717Z,28.35
2018-06-19T06:15:24.892Z,28.35
2018-06-19T06:15:56.162Z,28.16
2018-06-19T06:16:27.427Z,28.13
2018-06-19T06:16:59.233Z,28.11
2018-06-19T06:17:30.494Z,28.33
2018-06-19T06:18:01.669Z,28.28
2018-06-19T06:18:32.841Z,28.55
2018-06-19T06:19:04.028Z,28.61
2018-06-19T06:19:35.191Z,28.56
2018-06-19T06:20:06.442Z,28.52
2018-06-19T06:20:37.665Z,28.43
2018-06-19T06:21:08.856Z,28.30
2018-06-19T06:21:40.037Z,28.35
2018-06-19T06:22:11.313Z,28.33
2018-06-19T06:22:42.569Z,28.34
2018-06-19T06:23:51.145Z,28.22
2018-06-19T06:24:22.318Z,28.09
2018-06-19T06:24:53.534Z,28.05
2018-06-19T06:25:24.708Z,28.03
2018-06-19T06:25:55.912Z,28.01
2018-06-19T06:26:27.128Z,27.91
2018-06-19T06:26:58.364Z,27.85
2018-06-19T06:27:29.669Z,27.90
2018-06-19T06:28:00.897Z,27.85
2018-06-19T06:28:32.133Z,27.76
2018-06-19T06:29:03.354Z,27.60
2018-06-19T06:29:34.580Z,27.54
2018-06-19T06:30:05.753Z,27.48
2018-06-19T06:30:36.969Z,27.54
2018-06-19T06:31:08.226Z,27.65
2018-06-19T06:31:39.400Z,27.83
2018-06-19T06:32:10.565Z,27.98
2018-06-19T06:32:41.881Z,28.07
2018-06-19T06:33:13.064Z,28.18
2018-06-19T06:33:44.289Z,27.06
2018-06-19T06:34:15.508Z,28.26
2018-06-19T06:34:46.708Z,28.33
2018-06-19T06:35:17.891Z,28.43
2018-06-19T06:35:49.069Z,28.53
2018-06-19T06:36:20.264Z,28.62
2018-06-19T06:36:51.493Z,28.69
2018-06-19T06:37:22.677Z,28.70
2018-06-19T06:37:53.848Z,28.80
2018-06-19T06:38:25.039Z,28.80
2018-06-19T06:38:56.253Z,28.63
2018-06-19T06:39:27.489Z,28.42
2018-06-19T06:39:58.729Z,28.22
2018-06-19T06:40:30.011Z,28.20
2018-06-19T06:41:01.188Z,28.21
2018-06-19T06:41:32.406Z,28.18
2018-06-19T06:42:03.648Z,28.10
2018-06-19T06:42:34.839Z,28.04
2018-06-19T06:43:06.071Z,28.09